Time;durP1;ratioP1;P1;durP2;ratioP2;P2;SDS_P1;SDS_P2;PMS_P1;PMS_P2;Temp;Humidity;BMP_temperature;BMP_pressure;BME280_temperature;BME280_humidity;BME280_pressure;Samples;Min_cycle;Max_cycle;Signal;HPM_P1;HPM_P2
2023/02/21 02:16:28;;;;;;;12.23;11.83;;;19.40;61.20;;;;;;5091543;28;20465;-63
2023/02/21 02:19:06;;;;;;;10.97;10.57;;;19.30;61.10;;;;;;5091489;28;20466;-65
2023/02/21 02:22:15;;;;;;;12.23;11.73;;;19.30;61.10;;;;;;5090337;28;20442;-64
2023/02/21 02:25:06;;;;;;;12.37;11.83;;;19.30;61.20;;;;;;5071427;28;20439;-64
2023/02/21 02:27:49;;;;;;;11.93;11.43;;;19.30;61.20;;;;;;5071285;28;20444;-63
2023/02/21 02:31:02;;;;;;;12.67;12.17;;;19.30;61.20;;;;;;5075175;28;20467;-63
2023/02/21 02:34:10;;;;;;;11.70;11.30;;;19.30;61.20;;;;;;5091777;28;21018;-64
2023/02/21 02:36:42;;;;;;;11.60;11.20;;;19.30;61.20;;;;;;5095216;28;20976;-64
2023/02/21 02:39:20;;;;;;;11.63;11.23;;;19.30;61.30;;;;;;5095349;28;20545;-64
2023/02/21 02:41:55;;;;;;;11.73;11.33;;;19.30;61.50;;;;;;5095342;28;20808;-64
2023/02/21 02:44:28;;;;;;;12.47;11.97;;;19.30;61.60;;;;;;5086402;28;20793;-64
2023/02/21 02:46:58;;;;;;;12.00;11.60;;;19.30;61.50;;;;;;5074737;28;20453;-64
2023/02/21 02:49:28;;;;;;;12.63;12.23;;;19.30;61.70;;;;;;5074634;28;20475;-64
2023/02/21 02:52:03;;;;;;;11.70;11.30;;;19.30;61.70;;;;;;5074868;28;20533;-64
2023/02/21 02:54:31;;;;;;;13.03;12.53;;;19.30;61.80;;;;;;5075032;28;20454;-64
2023/02/21 02:56:58;;;;;;;12.80;12.10;;;19.30;61.80;;;;;;5087967;28;20446;-64
2023/02/21 02:59:28;;;;;;;11.87;11.47;;;19.30;61.80;;;;;;5094936;28;21006;-64
2023/02/21 03:02:26;;;;;;;12.10;11.60;;;19.30;61.70;;;;;;5094880;28;20439;-64
2023/02/21 03:05:16;;;;;;;13.70;13.00;;;19.20;61.60;;;;;;5078361;28;20446;-64
2023/02/21 03:07:55;;;;;;;12.07;11.57;;;19.20;61.70;;;;;;5092785;28;20448;-63
2023/02/21 03:10:31;;;;;;;11.97;11.57;;;19.20;61.70;;;;;;5074465;28;20463;-63
2023/02/21 03:13:05;;;;;;;12.70;12.20;;;19.20;61.70;;;;;;5074433;28;20484;-64
2023/02/21 03:15:38;;;;;;;13.40;12.70;;;19.20;61.70;;;;;;5074315;28;20447;-63
2023/02/21 03:18:11;;;;;;;12.70;12.20;;;19.20;61.70;;;;;;5074286;28;20457;-63
2023/02/21 03:20:39;;;;;;;11.27;10.87;;;19.20;62.70;;;;;;5083032;28;20457;-64
2023/02/21 03:23:10;;;;;;;12.67;12.17;;;19.20;62.10;;;;;;5094540;28;20930;-63
2023/02/21 03:25:39;;;;;;;12.47;11.97;;;19.20;62.00;;;;;;5094288;28;20439;-63
2023/02/21 03:28:06;;;;;;;12.77;12.27;;;19.20;62.10;;;;;;5092476;28;20447;-63
2023/02/21 03:30:34;;;;;;;15.87;15.00;;;19.20;62.20;;;;;;5074100;28;20926;-64
2023/02/21 03:33:01;;;;;;;12.97;12.47;;;19.20;62.30;;;;;;5074011;28;20585;-64
2023/02/21 03:35:30;;;;;;;13.93;13.43;;;19.20;62.30;;;;;;5074020;28;20501;-63
2023/02/21 03:37:59;;;;;;;12.83;12.40;;;19.20;62.40;;;;;;5073949;28;20450;-63
2023/02/21 03:40:29;;;;;;;13.00;12.60;;;19.20;62.30;;;;;;5092914;28;20439;-64
2023/02/21 03:42:57;;;;;;;13.13;12.63;;;19.20;62.20;;;;;;5094220;28;20453;-63
2023/02/21 03:45:24;;;;;;;13.47;13.00;;;19.20;62.20;;;;;;5093934;28;20446;-64
2023/02/21 03:47:51;;;;;;;13.30;12.80;;;19.20;62.20;;;;;;5093938;28;20464;-63
2023/02/21 03:50:18;;;;;;;13.20;12.70;;;19.20;62.30;;;;;;5088436;28;20814;-64
2023/02/21 03:52:45;;;;;;;13.47;12.90;;;19.20;62.40;;;;;;5073632;28;20564;-64
2023/02/21 03:55:12;;;;;;;13.20;12.60;;;19.20;62.50;;;;;;5073626;28;20440;-63
2023/02/21 03:57:40;;;;;;;13.17;12.57;;;19.10;62.40;;;;;;5073687;28;20439;-64
2023/02/21 04:00:08;;;;;;;13.07;12.57;;;19.10;62.50;;;;;;5073590;28;20463;-64
2023/02/21 04:02:35;;;;;;;12.70;12.20;;;19.20;62.60;;;;;;5082983;28;20443;-64
2023/02/21 04:05:02;;;;;;;12.40;11.90;;;19.10;62.40;;;;;;5093693;28;20857;-64
2023/02/21 04:07:29;;;;;;;12.70;12.20;;;19.10;62.40;;;;;;5093502;28;20449;-64
2023/02/21 04:09:55;;;;;;;12.37;11.97;;;19.20;62.60;;;;;;5092070;28;20876;-64
2023/02/21 04:12:23;;;;;;;12.80;12.30;;;19.10;62.50;;;;;;5073300;28;20537;-63
2023/02/21 04:14:51;;;;;;;13.30;12.80;;;19.10;62.60;;;;;;5073251;28;20439;-64
2023/02/21 04:17:18;;;;;;;12.17;11.77;;;19.10;62.60;;;;;;5073030;28;20447;-62
2023/02/21 04:19:45;;;;;;;12.73;12.30;;;19.10;63.10;;;;;;5073074;28;21041;-63
2023/02/21 04:22:12;;;;;;;13.07;12.57;;;19.10;62.90;;;;;;5092849;28;20449;-64
2023/02/21 04:24:39;;;;;;;13.00;12.43;;;19.10;62.60;;;;;;5093381;28;20810;-64
2023/02/21 04:27:06;;;;;;;12.10;11.70;;;19.10;62.80;;;;;;5093005;28;20446;-64
2023/02/21 04:29:33;;;;;;;13.33;12.83;;;19.10;62.80;;;;;;5081025;28;20471;-63
2023/02/21 04:32:01;;;;;;;13.17;12.67;;;19.10;62.80;;;;;;5079966;28;20533;-64
2023/02/21 04:34:28;;;;;;;13.53;13.03;;;19.10;62.90;;;;;;5093039;28;20555;-64
2023/02/21 04:36:55;;;;;;;14.60;14.00;;;19.10;63.10;;;;;;5088361;28;20534;-64
2023/02/21 04:39:22;;;;;;;12.30;11.83;;;19.10;63.10;;;;;;5072795;28;20555;-64
2023/02/21 04:41:49;;;;;;;12.77;12.27;;;19.10;63.00;;;;;;5072714;28;20447;-64
2023/02/21 04:44:17;;;;;;;12.43;12.03;;;19.10;63.00;;;;;;5072746;28;20441;-64
2023/02/21 04:46:43;;;;;;;12.67;12.17;;;19.10;63.10;;;;;;5074264;28;20535;-63
2023/02/21 04:49:13;;;;;;;14.17;13.57;;;19.10;63.20;;;;;;5092609;28;20569;-64
2023/02/21 04:51:40;;;;;;;13.27;12.77;;;19.10;63.20;;;;;;5092392;28;20438;-63
2023/02/21 04:54:07;;;;;;;14.23;13.63;;;19.10;63.40;;;;;;5092647;28;20514;-63
2023/02/21 04:56:34;;;;;;;13.77;13.27;;;19.10;63.40;;;;;;5092409;28;20999;-64
2023/02/21 04:59:01;;;;;;;13.27;12.77;;;19.10;63.50;;;;;;5087290;28;20463;-64
2023/02/21 05:01:29;;;;;;;13.13;12.63;;;19.10;63.60;;;;;;5072431;28;20442;-62
2023/02/21 05:03:56;;;;;;;13.50;13.00;;;19.10;63.80;;;;;;5072422;28;20449;-63
2023/02/21 05:06:27;;;;;;;12.77;12.37;;;19.10;63.80;;;;;;5072023;28;20962;-63
2023/02/21 05:08:54;;;;;;;13.47;12.97;;;19.10;63.90;;;;;;5072330;28;20467;-64
2023/02/21 05:11:21;;;;;;;13.97;13.47;;;19.10;63.80;;;;;;5081045;28;20456;-64
2023/02/21 05:13:49;;;;;;;13.43;12.93;;;19.10;63.90;;;;;;5092304;28;21005;-63
2023/02/21 05:16:16;;;;;;;14.23;13.63;;;19.10;64.10;;;;;;5092148;28;20892;-64
2023/02/21 05:18:44;;;;;;;13.23;12.77;;;19.10;64.50;;;;;;5092244;28;20473;-64
2023/02/21 05:21:11;;;;;;;13.17;12.77;;;19.10;64.60;;;;;;5092345;28;20439;-63
2023/02/21 05:23:41;;;;;;;13.33;12.83;;;19.10;64.70;;;;;;5083029;28;20440;-63
2023/02/21 05:26:10;;;;;;;13.67;13.07;;;19.10;64.80;;;;;;5071754;28;20447;-61
2023/02/21 05:28:38;;;;;;;13.40;12.90;;;19.10;65.10;;;;;;5071974;28;20811;-64
2023/02/21 05:31:06;;;;;;;15.63;14.40;;;19.10;65.00;;;;;;5073074;28;20443;-62
2023/02/21 05:33:32;;;;;;;16.23;14.97;;;19.10;66.60;;;;;;5092028;28;20478;-64
2023/02/21 05:35:59;;;;;;;20.07;14.10;;;19.10;71.00;;;;;;5091911;28;20444;-64
2023/02/21 05:38:27;;;;;;;25.50;15.00;;;19.10;78.40;;;;;;5091875;28;20464;-63
2023/02/21 05:40:56;;;;;;;24.27;18.00;;;19.10;83.40;;;;;;5091776;28;20442;-62
2023/02/21 05:43:23;;;;;;;16.30;14.80;;;19.20;85.70;;;;;;5056748;28;20899;-63
2023/02/21 05:45:50;;;;;;;18.87;16.87;;;19.20;86.90;;;;;;5075517;28;20444;-64
2023/02/21 05:50:45;;;;;;;18.93;17.57;;;19.20;92.10;;;;;;4988404;23;20826;-61
2023/02/21 05:53:11;;;;;;;18.17;16.57;;;19.20;91.50;;;;;;4970680;28;20574;-61
2023/02/21 05:55:38;;;;;;;17.37;16.17;;;19.20;91.20;;;;;;4970673;28;20884;-63
2023/02/21 05:58:06;;;;;;;18.17;16.50;;;19.20;90.70;;;;;;4970309;28;20546;-63
2023/02/21 06:00:33;;;;;;;19.30;16.07;;;19.20;90.10;;;;;;4970607;28;20837;-63
2023/02/21 06:03:00;;;;;;;18.23;16.47;;;19.20;89.80;;;;;;4969670;28;20543;-63
2023/02/21 06:05:27;;;;;;;20.03;17.83;;;19.20;88.80;;;;;;4970186;28;20849;-63
2023/02/21 06:07:54;;;;;;;18.30;16.90;;;19.10;87.60;;;;;;4970618;28;20444;-63
2023/02/21 06:10:21;;;;;;;19.43;17.50;;;19.10;87.30;;;;;;4970186;28;20548;-63
2023/02/21 06:12:48;;;;;;;18.43;16.97;;;19.10;85.90;;;;;;4970190;28;20534;-63
2023/02/21 06:15:16;;;;;;;17.60;16.10;;;19.10;84.90;;;;;;4970079;28;20483;-63
2023/02/21 06:17:43;;;;;;;16.70;15.50;;;19.10;84.30;;;;;;4970513;28;20454;-63
2023/02/21 06:20:15;;;;;;;17.23;15.63;;;19.10;83.70;;;;;;4970130;28;20474;-63
2023/02/21 06:22:42;;;;;;;16.93;15.63;;;19.10;82.90;;;;;;4970384;28;20454;-63
2023/02/21 06:25:09;;;;;;;15.20;14.40;;;19.10;82.30;;;;;;4970038;28;20444;-63
2023/02/21 06:27:36;;;;;;;16.93;15.53;;;19.10;81.60;;;;;;4970390;28;20452;-63
2023/02/21 06:30:03;;;;;;;17.73;16.20;;;19.10;80.80;;;;;;4970250;28;20474;-62
2023/02/21 06:32:31;;;;;;;14.83;14.00;;;19.00;80.30;;;;;;4970311;28;20448;-63
2023/02/21 06:34:58;;;;;;;16.47;15.17;;;19.00;79.90;;;;;;4969956;28;20488;-63
2023/02/21 06:37:25;;;;;;;15.57;14.77;;;19.00;79.40;;;;;;4969959;28;20577;-63
2023/02/21 06:39:52;;;;;;;16.63;15.23;;;19.00;78.90;;;;;;4970347;28;20559;-63
2023/02/21 06:42:19;;;;;;;15.43;14.33;;;19.00;78.40;;;;;;4970001;28;20535;-63
2023/02/21 06:44:46;;;;;;;15.97;14.60;;;19.00;78.20;;;;;;4970518;28;20440;-63
2023/02/21 06:47:14;;;;;;;15.07;13.93;;;19.00;77.60;;;;;;4970464;28;20448;-62
2023/02/21 06:49:42;;;;;;;15.63;14.70;;;19.00;77.20;;;;;;4969946;28;20501;-62
2023/02/21 06:52:09;;;;;;;13.83;13.00;;;19.00;76.90;;;;;;4970010;28;20460;-62
2023/02/21 06:54:36;;;;;;;16.60;15.43;;;19.00;76.50;;;;;;4970128;28;20484;-63
2023/02/21 06:57:04;;;;;;;16.33;15.07;;;19.00;76.30;;;;;;4970025;28;20447;-63
2023/02/21 06:59:31;;;;;;;15.03;14.03;;;19.00;76.00;;;;;;4969783;28;20468;-63
2023/02/21 07:01:58;;;;;;;14.53;13.63;;;19.00;75.60;;;;;;4969683;28;20969;-63
2023/02/21 07:04:26;;;;;;;14.80;13.87;;;19.00;75.20;;;;;;4969779;28;20448;-63
2023/02/21 07:06:54;;;;;;;16.63;15.53;;;19.00;75.10;;;;;;4969869;28;20454;-63
2023/02/21 07:09:21;;;;;;;16.03;15.03;;;19.00;74.70;;;;;;4969501;28;20559;-63
2023/02/21 07:11:47;;;;;;;15.90;14.70;;;18.90;74.40;;;;;;4969840;28;20543;-63
2023/02/21 07:14:15;;;;;;;15.53;14.57;;;18.90;74.20;;;;;;4970655;28;20487;-63
2023/02/21 07:16:41;;;;;;;15.47;14.70;;;18.90;73.90;;;;;;4973359;28;20870;-62
2023/02/21 07:19:08;;;;;;;15.13;14.13;;;18.90;73.60;;;;;;4973283;28;20468;-63
2023/02/21 07:21:35;;;;;;;14.50;13.80;;;18.90;73.40;;;;;;4973115;28;20448;-63
2023/02/21 07:24:03;;;;;;;13.30;12.80;;;18.90;73.20;;;;;;4972844;28;20847;-63
2023/02/21 07:26:30;;;;;;;14.87;13.97;;;18.90;73.00;;;;;;4972927;28;20498;-63
2023/02/21 07:28:57;;;;;;;14.80;13.90;;;18.90;72.60;;;;;;4972765;28;21006;-63
2023/02/21 07:31:24;;;;;;;14.57;13.70;;;18.90;72.30;;;;;;4972754;28;20458;-63
2023/02/21 07:33:51;;;;;;;15.07;14.17;;;18.90;72.30;;;;;;4973024;28;20483;-63
2023/02/21 07:36:17;;;;;;;15.20;14.10;;;18.90;72.00;;;;;;4972578;28;20958;-63
2023/02/21 07:38:44;;;;;;;14.73;13.97;;;18.90;71.90;;;;;;4972594;28;20975;-63
2023/02/21 07:41:15;;;;;;;13.97;13.27;;;18.90;71.70;;;;;;4972702;28;20538;-62
2023/02/21 07:43:42;;;;;;;14.27;13.67;;;18.90;71.50;;;;;;4972686;28;20968;-63
2023/02/21 07:46:10;;;;;;;16.70;15.40;;;18.90;71.20;;;;;;4972365;28;20544;-63
2023/02/21 07:48:37;;;;;;;14.63;13.90;;;18.90;71.20;;;;;;4972637;28;20502;-63
2023/02/21 07:51:06;;;;;;;14.60;13.80;;;18.80;70.90;;;;;;4972483;28;20450;-61
2023/02/21 07:53:33;;;;;;;13.70;12.70;;;18.90;71.00;;;;;;4972358;28;20443;-63
2023/02/21 07:56:00;;;;;;;13.63;13.03;;;18.80;70.80;;;;;;4972294;28;20448;-63
2023/02/21 07:58:28;;;;;;;15.27;14.50;;;18.80;70.60;;;;;;4972966;28;20943;-63
2023/02/21 08:00:55;;;;;;;14.27;13.47;;;18.80;70.40;;;;;;4972185;28;20535;-63
2023/02/21 08:03:22;;;;;;;13.50;12.90;;;18.80;70.30;;;;;;4972269;28;20885;-61
2023/02/21 08:05:49;;;;;;;13.40;12.57;;;18.80;70.10;;;;;;4972447;28;20444;-63
2023/02/21 08:08:16;;;;;;;13.97;13.20;;;18.80;69.90;;;;;;4972700;28;20467;-63
2023/02/21 08:10:43;;;;;;;13.90;12.97;;;18.80;69.80;;;;;;4972237;28;20472;-62
2023/02/21 08:13:10;;;;;;;13.40;12.80;;;18.80;69.70;;;;;;4972400;28;20534;-63
2023/02/21 08:15:38;;;;;;;13.70;13.00;;;18.80;69.70;;;;;;4972138;28;20992;-63
2023/02/21 08:18:05;;;;;;;13.73;13.10;;;18.80;69.50;;;;;;4972181;28;20538;-63
2023/02/21 08:20:32;;;;;;;13.57;12.97;;;18.80;69.30;;;;;;4971854;28;20480;-62
2023/02/21 08:22:59;;;;;;;14.00;13.40;;;18.80;69.20;;;;;;4971990;28;20459;-63
2023/02/21 08:25:26;;;;;;;14.10;13.47;;;18.80;69.10;;;;;;4970737;28;20451;-61
2023/02/21 08:27:54;;;;;;;13.40;12.90;;;18.80;69.10;;;;;;4971939;28;20617;-63
2023/02/21 08:30:21;;;;;;;13.67;13.00;;;18.80;69.00;;;;;;4971417;28;20482;-63
2023/02/21 08:32:50;;;;;;;14.20;13.30;;;18.80;69.00;;;;;;4971610;28;20451;-63
2023/02/21 08:35:18;;;;;;;13.33;12.67;;;18.80;68.80;;;;;;4971569;28;20982;-62
2023/02/21 08:37:46;;;;;;;14.07;13.33;;;18.80;68.60;;;;;;4971810;28;20444;-62
2023/02/21 08:40:14;;;;;;;14.00;13.20;;;18.80;68.60;;;;;;4971719;28;20475;-63
2023/02/21 08:42:41;;;;;;;14.00;13.23;;;18.80;68.50;;;;;;4971748;28;20460;-62
2023/02/21 08:45:09;;;;;;;14.63;13.83;;;18.70;68.30;;;;;;4971796;28;20450;-63
2023/02/21 08:47:36;;;;;;;13.40;12.80;;;18.70;68.30;;;;;;4971821;28;20455;-63
2023/02/21 08:50:05;;;;;;;13.27;12.83;;;18.70;68.10;;;;;;4971379;28;21070;-62
2023/02/21 08:52:32;;;;;;;13.47;12.97;;;18.70;68.10;;;;;;4971506;28;20458;-63
2023/02/21 08:54:58;;;;;;;13.80;13.13;;;18.70;67.90;;;;;;4971636;28;21000;-63
2023/02/21 08:57:25;;;;;;;13.27;12.60;;;18.70;67.80;;;;;;4971675;28;20550;-62
2023/02/21 08:59:52;;;;;;;14.20;13.50;;;18.70;67.80;;;;;;4971697;28;20663;-62
2023/02/21 09:02:21;;;;;;;13.43;12.93;;;18.70;67.70;;;;;;4971383;28;20454;-61
2023/02/21 09:04:48;;;;;;;14.20;13.63;;;18.70;67.60;;;;;;4971360;28;20451;-62
2023/02/21 09:07:18;;;;;;;14.33;13.83;;;18.70;67.50;;;;;;4971482;28;20544;-63
2023/02/21 09:09:45;;;;;;;14.00;13.20;;;18.70;67.40;;;;;;4971304;28;20905;-61
2023/02/21 09:12:12;;;;;;;14.30;13.70;;;18.70;67.40;;;;;;4971306;28;20834;-63
2023/02/21 09:14:41;;;;;;;14.60;13.70;;;18.70;67.30;;;;;;4971230;28;20483;-61
2023/02/21 09:17:09;;;;;;;13.47;12.87;;;18.70;67.30;;;;;;4970709;28;20450;-62
2023/02/21 09:19:36;;;;;;;14.60;14.03;;;18.70;67.20;;;;;;4971067;28;20475;-63
2023/02/21 09:22:03;;;;;;;13.67;13.20;;;18.70;67.10;;;;;;4971019;28;20544;-63
2023/02/21 09:24:31;;;;;;;13.20;12.60;;;18.70;67.00;;;;;;4970584;28;20455;-63
2023/02/21 09:27:02;;;;;;;13.97;13.37;;;18.70;66.90;;;;;;4970603;28;20459;-63
2023/02/21 09:29:29;;;;;;;14.20;13.70;;;18.70;66.90;;;;;;4971477;28;20472;-63
2023/02/21 09:31:56;;;;;;;14.80;14.20;;;18.70;66.80;;;;;;4970678;28;20478;-63
2023/02/21 09:34:24;;;;;;;14.93;14.27;;;18.70;66.80;;;;;;4970671;28;21002;-62
2023/02/21 09:36:51;;;;;;;14.23;13.60;;;18.70;66.70;;;;;;4970376;28;20444;-63
2023/02/21 09:39:18;;;;;;;14.73;14.03;;;18.70;66.60;;;;;;4971097;28;20464;-62
2023/02/21 09:41:47;;;;;;;14.43;13.90;;;18.70;66.60;;;;;;4970958;28;20454;-63
2023/02/21 09:44:18;;;;;;;13.90;13.40;;;18.70;66.50;;;;;;4971013;28;20452;-61
2023/02/21 09:46:47;;;;;;;14.10;13.33;;;18.70;66.50;;;;;;4970475;28;20475;-62
2023/02/21 09:49:21;;;;;;;14.93;14.23;;;18.60;66.30;;;;;;4970895;28;20558;-63
2023/02/21 09:51:49;;;;;;;14.23;13.63;;;18.60;66.30;;;;;;4970912;28;20452;-63
2023/02/21 09:54:23;;;;;;;15.00;14.40;;;18.60;66.20;;;;;;4970715;28;20450;-63
2023/02/21 09:56:51;;;;;;;13.50;13.00;;;18.60;66.30;;;;;;4971163;28;20447;-61
2023/02/21 09:59:18;;;;;;;14.37;13.77;;;18.60;66.10;;;;;;4970912;28;20467;-62
2023/02/21 10:01:55;;;;;;;13.70;13.17;;;18.60;66.00;;;;;;4971521;28;20510;-63
2023/02/21 10:04:38;;;;;;;13.30;12.80;;;18.60;66.00;;;;;;4971243;28;20458;-63
2023/02/21 10:07:13;;;;;;;14.10;13.40;;;18.60;66.00;;;;;;4972096;28;20447;-63
2023/02/21 10:09:45;;;;;;;13.17;12.67;;;18.60;65.80;;;;;;4974909;28;20522;-62
2023/02/21 10:12:21;;;;;;;13.40;12.90;;;18.60;65.90;;;;;;4974363;28;20463;-63
2023/02/21 10:15:08;;;;;;;14.63;14.03;;;18.60;65.80;;;;;;4973807;28;20484;-63
2023/02/21 10:17:43;;;;;;;13.37;12.87;;;18.60;65.80;;;;;;4972597;28;20467;-63
2023/02/21 10:20:14;;;;;;;14.20;13.70;;;18.60;65.70;;;;;;4970461;28;20472;-62
2023/02/21 10:22:46;;;;;;;13.83;13.33;;;18.60;66.60;;;;;;4970470;28;20829;-63
2023/02/21 10:25:22;;;;;;;13.57;13.17;;;18.60;65.70;;;;;;4970564;28;20470;-63
2023/02/21 10:27:52;;;;;;;12.97;12.47;;;18.60;65.70;;;;;;4970342;28;20465;-63
2023/02/21 10:30:30;;;;;;;13.57;13.07;;;18.60;65.70;;;;;;4970531;28;20470;-63
2023/02/21 10:32:57;;;;;;;13.20;12.77;;;18.60;65.60;;;;;;4970332;28;20447;-63
2023/02/21 10:35:24;;;;;;;13.53;12.93;;;18.60;65.50;;;;;;4969936;28;20490;-62
2023/02/21 10:37:54;;;;;;;12.30;11.90;;;18.60;65.40;;;;;;4969980;28;20547;-63
2023/02/21 10:40:29;;;;;;;12.70;12.30;;;18.60;65.40;;;;;;4970251;28;20566;-63
2023/02/21 10:43:02;;;;;;;12.70;12.30;;;18.60;65.30;;;;;;4958322;28;20452;-63
2023/02/21 10:45:35;;;;;;;12.67;12.17;;;18.60;66.10;;;;;;4950677;28;20449;-63
2023/02/21 10:48:05;;;;;;;12.70;12.20;;;18.60;65.20;;;;;;4950649;28;21011;-64
2023/02/21 10:50:42;;;;;;;14.00;13.27;;;18.50;65.50;;;;;;4953082;29;20476;-71
2023/02/21 10:53:21;;;;;;;11.50;10.90;;;18.60;66.30;;;;;;4952107;29;20448;-63
2023/02/21 10:56:21;;;;;;;13.67;13.17;;;18.60;67.70;;;;;;4953359;28;20238;-65
2023/02/21 10:58:52;;;;;;;13.87;13.27;;;18.80;67.60;;;;;;4953986;28;20508;-63
2023/02/21 11:01:24;;;;;;;13.17;12.77;;;18.90;68.10;;;;;;4953454;28;20459;-65
2023/02/21 11:03:53;;;;;;;13.47;13.07;;;18.90;68.10;;;;;;4953388;28;20522;-61
2023/02/21 11:06:27;;;;;;;13.67;13.20;;;19.00;68.80;;;;;;4953155;29;20798;-63
2023/02/21 11:08:54;;;;;;;13.63;13.13;;;19.00;68.40;;;;;;4953257;29;20473;-64
2023/02/21 11:11:35;;;;;;;13.70;13.20;;;19.00;68.20;;;;;;4953406;29;20444;-63
2023/02/21 11:14:21;;;;;;;14.87;13.93;;;19.10;68.30;;;;;;4952821;29;20481;-65
2023/02/21 11:17:11;;;;;;;14.33;13.73;;;19.20;68.30;;;;;;4953057;28;20484;-61
2023/02/21 11:20:05;;;;;;;14.80;13.90;;;19.20;68.40;;;;;;4953152;28;20464;-64
2023/02/21 11:22:37;;;;;;;11.82;11.32;;;19.20;68.10;;;;;;4952027;28;20538;-64
2023/02/21 11:25:08;;;;;;;14.27;13.47;;;19.30;68.10;;;;;;4953001;28;20208;-66
2023/02/21 11:27:36;;;;;;;14.73;14.13;;;19.40;67.20;;;;;;4953092;28;20444;-65
2023/02/21 11:30:14;;;;;;;13.50;13.00;;;19.40;66.70;;;;;;4953057;28;20469;-66
2023/02/21 11:32:44;;;;;;;14.30;13.67;;;19.40;66.40;;;;;;4953024;28;20444;-66
2023/02/21 11:35:24;;;;;;;14.50;13.87;;;19.30;66.10;;;;;;4953019;28;20484;-66
2023/02/21 11:37:55;;;;;;;13.30;12.90;;;19.30;66.00;;;;;;4952924;28;20928;-66
2023/02/21 11:40:34;;;;;;;14.00;13.40;;;19.30;66.10;;;;;;4952978;28;20479;-66
2023/02/21 11:43:25;;;;;;;14.60;13.90;;;19.20;66.00;;;;;;4952918;28;20457;-66
2023/02/21 11:46:03;;;;;;;14.77;14.03;;;19.10;65.80;;;;;;4961975;28;20459;-66
2023/02/21 11:48:35;;;;;;;13.87;13.37;;;19.10;65.80;;;;;;4952531;28;20444;-67
2023/02/21 11:51:08;;;;;;;13.53;12.93;;;19.10;65.90;;;;;;4953515;28;20448;-65
2023/02/21 11:53:39;;;;;;;13.20;12.70;;;19.00;65.80;;;;;;4952779;28;20440;-66
2023/02/21 11:56:16;;;;;;;13.33;12.80;;;19.00;65.80;;;;;;4952377;28;20495;-66
2023/02/21 11:58:49;;;;;;;13.27;12.87;;;19.00;65.90;;;;;;4952603;28;20967;-65
2023/02/21 12:01:26;;;;;;;13.00;12.60;;;19.00;65.80;;;;;;4951484;28;20463;-65
2023/02/21 12:04:14;;;;;;;14.10;13.50;;;18.90;65.70;;;;;;4952598;28;20452;-65
2023/02/21 12:06:45;;;;;;;14.10;13.37;;;18.90;65.70;;;;;;4952308;28;20445;-65
2023/02/21 12:09:16;;;;;;;12.50;12.00;;;18.90;65.70;;;;;;4952441;28;20473;-65
2023/02/21 12:11:56;;;;;;;13.67;13.10;;;18.90;65.60;;;;;;4952348;28;20449;-65
2023/02/21 12:14:34;;;;;;;12.27;11.87;;;18.90;66.40;;;;;;4952451;28;20444;-65
2023/02/21 12:17:14;;;;;;;12.93;12.33;;;18.80;65.50;;;;;;4952070;28;20492;-65
2023/02/21 12:19:57;;;;;;;12.20;11.80;;;18.80;65.40;;;;;;4952120;28;20472;-65
2023/02/21 12:22:39;;;;;;;12.70;12.20;;;18.80;65.40;;;;;;4952365;28;20466;-65
2023/02/21 12:25:16;;;;;;;13.10;12.70;;;18.80;65.30;;;;;;4952124;28;20449;-65
2023/02/21 12:27:52;;;;;;;12.27;11.87;;;18.80;65.30;;;;;;4952189;28;20448;-64
2023/02/21 12:30:35;;;;;;;13.00;12.47;;;18.80;65.30;;;;;;4952192;28;20479;-65
2023/02/21 12:33:16;;;;;;;13.50;12.97;;;18.80;65.20;;;;;;4952242;28;20951;-65
2023/02/21 12:36:14;;;;;;;13.40;12.90;;;18.80;65.30;;;;;;4951828;28;20484;-65
2023/02/21 12:38:52;;;;;;;13.73;13.23;;;18.70;65.10;;;;;;4957622;28;20489;-64
2023/02/21 12:41:35;;;;;;;12.00;11.70;;;18.70;65.10;;;;;;4952079;28;20459;-65
2023/02/21 12:44:12;;;;;;;12.30;11.90;;;18.70;65.00;;;;;;4951936;28;20536;-65
2023/02/21 12:46:42;;;;;;;12.87;12.37;;;18.70;65.10;;;;;;4951753;28;20441;-65
2023/02/21 12:49:16;;;;;;;12.40;12.00;;;18.70;65.00;;;;;;4951744;28;20483;-65
2023/02/21 12:51:49;;;;;;;13.00;12.60;;;18.70;65.00;;;;;;4951756;28;20459;-65
2023/02/21 12:54:20;;;;;;;12.90;12.50;;;18.70;65.00;;;;;;4951886;28;20632;-65
2023/02/21 12:56:52;;;;;;;12.97;12.57;;;18.70;65.00;;;;;;4951631;28;20488;-65
2023/02/21 12:59:26;;;;;;;13.00;12.60;;;18.70;64.90;;;;;;4951639;28;20471;-65
2023/02/21 13:01:56;;;;;;;13.27;12.87;;;18.70;64.90;;;;;;4951941;28;20455;-65
2023/02/21 13:04:33;;;;;;;13.63;13.13;;;18.70;64.90;;;;;;4951625;28;20875;-65
2023/02/21 13:07:06;;;;;;;13.00;12.60;;;18.70;64.80;;;;;;4951387;28;20447;-65
2023/02/21 13:09:37;;;;;;;13.67;13.17;;;18.70;64.80;;;;;;4951774;28;20480;-65
2023/02/21 13:12:08;;;;;;;14.43;13.93;;;18.70;64.80;;;;;;4951379;28;20958;-65
2023/02/21 13:14:41;;;;;;;13.07;12.57;;;18.70;64.80;;;;;;4951530;28;20453;-65
2023/02/21 13:17:11;;;;;;;12.77;12.27;;;18.70;64.70;;;;;;4951289;28;20855;-65
2023/02/21 13:19:44;;;;;;;12.73;12.33;;;18.70;64.80;;;;;;4951255;28;20468;-65
2023/02/21 13:25:49;;;;;;;12.20;11.80;;;18.60;64.60;;;;;;4951287;29;20432;-65
2023/02/21 13:28:22;;;;;;;12.40;11.90;;;18.60;64.50;;;;;;4951277;28;20457;-64
2023/02/21 13:30:52;;;;;;;12.93;12.50;;;18.60;64.50;;;;;;4951345;28;20445;-64
2023/02/21 13:33:29;;;;;;;12.77;12.37;;;18.60;64.50;;;;;;4951144;28;20453;-65
2023/02/21 13:35:59;;;;;;;13.13;12.63;;;18.60;64.50;;;;;;4950963;28;20561;-65
2023/02/21 13:38:29;;;;;;;12.93;12.43;;;18.60;64.50;;;;;;4951202;28;20445;-65
2023/02/21 13:41:06;;;;;;;13.37;12.87;;;18.60;64.50;;;;;;4951101;28;20514;-64
2023/02/21 13:43:35;;;;;;;13.87;13.33;;;18.60;64.40;;;;;;4951209;28;20452;-64
2023/02/21 13:46:24;;;;;;;13.00;12.57;;;18.60;64.40;;;;;;4950789;28;20452;-67
2023/02/21 13:49:24;;;;;;;13.30;12.90;;;18.60;64.30;;;;;;4950779;28;20995;-65
2023/02/21 13:51:54;;;;;;;13.67;13.07;;;18.60;64.30;;;;;;4950839;28;20449;-65
2023/02/21 13:54:23;;;;;;;14.10;13.40;;;18.60;64.30;;;;;;4951033;28;20449;-66
2023/02/21 13:56:52;;;;;;;14.10;13.60;;;18.60;64.30;;;;;;4950806;28;20487;-65
2023/02/21 13:59:33;;;;;;;13.87;13.37;;;18.50;64.20;;;;;;4950772;28;20976;-66
2023/02/21 14:02:22;;;;;;;13.20;12.70;;;18.60;64.30;;;;;;4950884;28;20448;-65
2023/02/21 14:05:05;;;;;;;13.77;13.33;;;18.50;64.10;;;;;;4950840;28;20441;-65
2023/02/21 14:07:48;;;;;;;12.47;12.03;;;18.60;64.20;;;;;;4950846;28;20472;-66
2023/02/21 14:10:24;;;;;;;12.50;12.10;;;18.60;64.20;;;;;;4950628;28;20464;-65
2023/02/21 14:12:56;;;;;;;13.63;13.10;;;18.50;64.10;;;;;;4950750;28;20519;-66
2023/02/21 14:15:23;;;;;;;13.10;12.67;;;18.50;64.10;;;;;;4950560;28;20441;-66
2023/02/21 14:17:51;;;;;;;12.80;12.40;;;18.50;64.10;;;;;;4950453;28;20870;-65
2023/02/21 14:20:22;;;;;;;13.60;13.10;;;18.50;64.10;;;;;;4950581;28;20547;-66
2023/02/21 14:22:52;;;;;;;14.07;13.47;;;18.50;64.00;;;;;;4950683;28;20928;-65
2023/02/21 14:25:22;;;;;;;14.37;13.87;;;18.60;64.10;;;;;;4953402;28;20448;-66
2023/02/21 14:27:52;;;;;;;13.33;12.93;;;18.50;64.00;;;;;;4953955;28;20440;-66
2023/02/21 14:30:29;;;;;;;14.03;13.53;;;18.50;63.90;;;;;;4953873;28;20999;-66
2023/02/21 14:33:09;;;;;;;12.97;12.50;;;18.50;63.90;;;;;;4953938;28;20455;-66
2023/02/21 14:35:43;;;;;;;12.03;11.63;;;18.50;63.80;;;;;;4953738;28;20452;-66
2023/02/21 14:38:21;;;;;;;13.40;12.80;;;18.50;63.80;;;;;;4953783;28;20459;-65
2023/02/21 14:41:01;;;;;;;13.63;13.03;;;18.50;63.80;;;;;;4953821;28;20455;-65
2023/02/21 14:44:04;;;;;;;13.53;13.13;;;18.50;63.70;;;;;;4953794;28;20448;-65
2023/02/21 14:47:02;;;;;;;12.53;12.13;;;18.50;63.80;;;;;;4954952;28;20951;-66
2023/02/21 14:50:00;;;;;;;12.48;11.98;;;18.50;64.90;;;;;;4955743;28;20485;-66
2023/02/21 14:52:42;;;;;;;13.20;12.60;;;18.50;65.60;;;;;;4926189;29;20210;-67
2023/02/21 14:55:50;;;;;;;13.30;12.60;;;18.60;65.40;;;;;;4946147;28;20455;-66
2023/02/21 14:58:58;;;;;;;12.00;11.48;;;18.70;65.20;;;;;;4933568;29;20806;-67
2023/02/21 15:01:40;;;;;;;13.67;13.07;;;18.80;66.80;;;;;;4895811;29;20289;-66
2023/02/21 15:04:17;;;;;;;13.80;13.10;;;18.90;66.40;;;;;;4941562;28;20498;-67
2023/02/21 15:06:53;;;;;;;13.47;12.87;;;19.00;66.40;;;;;;4952970;28;20449;-66
2023/02/21 15:09:21;;;;;;;14.50;13.70;;;19.00;66.10;;;;;;4953445;28;20472;-65
2023/02/21 15:11:50;;;;;;;14.20;13.60;;;19.10;66.20;;;;;;4953551;28;20446;-65
2023/02/21 15:14:22;;;;;;;14.73;14.03;;;19.20;66.40;;;;;;4953271;28;20456;-64